CheckWX is a tool to help pilots better visualize weather data.  It is not intended as a substitute for an official pre-flight weather briefing.

17:36:40 UTC

KHST TAF
Homestead ARB Airport
Homestead, Florida, USA
TAF KHST 241600Z 2416/2522 09012KT 9999 SCT050 BKN250 QNH3016INS BECMG 2423/2424 09009KT 9999 SCT030 QNH3011INS BECMG 2517/2518 09009KT 9000 -SHRA BKN030 QNH3005INS TX27/2420Z TN20/2511Z

Mar-24@
16:00 UTC

Mar-24 @ 16:00 UTC

Mar-24@
23:00 UTC

Mar-24 @ 23:00 UTC

TAF KHST 241600Z 2416/2522 09012KT 9999 SCT050 BKN250 QNH3016INS
Wind
  • 090° at 12 KTS
Cloud Levels
  • Scattered at 5,000' AGL
  • Broken at 25,000' AGL

Mar-24@
23:00 UTC

Mar-24 @ 23:00 UTC

Mar-25@
17:00 UTC

Mar-25 @ 17:00 UTC

BECMG 2423/2424 09009KT 9999 SCT030 QNH3011INS

Becoming

Becoming Conditions expected by Mon, Mar 25, 2019 @ 00:00 UTC

Wind
  • 090° at 9 KTS
Cloud Levels
  • Scattered at 3,000' AGL

Mar-25@
17:00 UTC

Mar-25 @ 17:00 UTC

Mar-25@
22:00 UTC

Mar-25 @ 22:00 UTC

BECMG 2517/2518 09009KT 9000 -SHRA BKN030 QNH3005INS TX27/2420Z TN20/2511Z

Becoming

Becoming Conditions expected by Mon, Mar 25, 2019 @ 18:00 UTC

Wind
  • 090° at 9 KTS
Conditions
Light Rain
Cloud Levels
  • Broken at 3,000' AGL